Cameron, South Carolina
Current Conditions -  °F | °C
As of 4:53 AM on Sunday 23 Nov 2014 (Local Time) from KOGB Reporting Station
Moderate Rain Moderate Rain  
Wind Chill: 53°   Ceiling: 7500
Heat Index: 53°   Visibility: 4mi
Dew Point: 51°   Wind: 8mph
Humidity: 93%   Direction: 90°E
Pressure: 30.18"   Gusts: NA
Location:  33.56°N, 80.71°W
Report Text: KOGB 230953Z AUTO 09007KT 4SM RA BR SCT060 OVC075 12/11 A3018 RMK AO2 SLP220 P0006 T01170106
Loading
Personal Weather Stations






























Interactive Weather Map New forecast layout! Learn more

10-Day Weather Forecast

Advertisements
Track Severe Weather on mobile